Terminal Aerodrome Forecast
Issued by NWS

Home | Current Version | Previous Version | Text Only | Print | Product List | Glossary On
Versions: 1 2 3 4 5 6 7 8 9 10 11 12 13 14 15 16 17 18 19 20 21 22 23 24 25 26 27 28 29 30
000
FTUS42 KCAE 242100 AAA
TAFDNL
TAF AMD
KDNL 242106Z 2421/2518 12006KT P6SM FEW070
     FM250600 13004KT P6SM SCT015
     FM250800 15004KT P6SM SCT008 BKN015
     FM251400 22012G20KT P6SM SCT015 BKN045=

USA.gov is the U.S. government's official web portal to all federal, state and local government web resources and services.